sensor_id;sensor_type;location;lat;lon;timestamp;P1;durP1;ratioP1;P2;durP2;ratioP2
70450;SDS011;58869;51.982;4.450;2023-12-20T00:05:07;9.26;;;6.20;;
70450;SDS011;58869;51.982;4.450;2023-12-20T00:07:33;8.77;;;5.94;;
70450;SDS011;58869;51.982;4.450;2023-12-20T00:09:59;8.29;;;5.69;;
70450;SDS011;58869;51.982;4.450;2023-12-20T00:12:33;8.45;;;5.86;;
70450;SDS011;58869;51.982;4.450;2023-12-20T00:15:02;9.29;;;6.24;;
70450;SDS011;58869;51.982;4.450;2023-12-20T00:28:10;9.99;;;6.66;;
70450;SDS011;58869;51.982;4.450;2023-12-20T00:31:13;8.93;;;6.02;;
70450;SDS011;58869;51.982;4.450;2023-12-20T00:44:39;10.56;;;7.11;;
70450;SDS011;58869;51.982;4.450;2023-12-20T00:47:07;8.87;;;6.13;;
70450;SDS011;58869;51.982;4.450;2023-12-20T00:49:50;9.29;;;6.38;;
70450;SDS011;58869;51.982;4.450;2023-12-20T00:52:18;8.82;;;6.21;;
70450;SDS011;58869;51.982;4.450;2023-12-20T00:54:53;9.41;;;6.50;;
70450;SDS011;58869;51.982;4.450;2023-12-20T00:57:18;9.77;;;6.77;;
70450;SDS011;58869;51.982;4.450;2023-12-20T00:59:44;9.45;;;6.41;;
70450;SDS011;58869;51.982;4.450;2023-12-20T01:02:09;10.47;;;6.94;;
70450;SDS011;58869;51.982;4.450;2023-12-20T01:04:35;11.39;;;7.51;;
70450;SDS011;58869;51.982;4.450;2023-12-20T01:07:01;10.68;;;7.05;;
70450;SDS011;58869;51.982;4.450;2023-12-20T01:09:26;10.20;;;6.85;;
70450;SDS011;58869;51.982;4.450;2023-12-20T01:11:52;11.00;;;7.41;;
70450;SDS011;58869;51.982;4.450;2023-12-20T01:14:30;9.69;;;6.65;;
70450;SDS011;58869;51.982;4.450;2023-12-20T01:17:08;10.87;;;7.36;;
70450;SDS011;58869;51.982;4.450;2023-12-20T01:19:33;10.82;;;7.31;;
70450;SDS011;58869;51.982;4.450;2023-12-20T01:21:59;9.20;;;6.29;;
70450;SDS011;58869;51.982;4.450;2023-12-20T01:24:24;9.93;;;6.72;;
70450;SDS011;58869;51.982;4.450;2023-12-20T01:26:50;10.68;;;7.07;;
70450;SDS011;58869;51.982;4.450;2023-12-20T01:29:21;10.28;;;6.90;;
70450;SDS011;58869;51.982;4.450;2023-12-20T01:31:47;10.79;;;7.24;;
70450;SDS011;58869;51.982;4.450;2023-12-20T01:34:18;11.24;;;7.34;;
70450;SDS011;58869;51.982;4.450;2023-12-20T01:36:43;10.92;;;7.18;;
70450;SDS011;58869;51.982;4.450;2023-12-20T01:39:18;10.83;;;7.21;;
70450;SDS011;58869;51.982;4.450;2023-12-20T01:47:57;11.01;;;7.22;;
70450;SDS011;58869;51.982;4.450;2023-12-20T01:53:31;10.51;;;6.95;;
70450;SDS011;58869;51.982;4.450;2023-12-20T01:56:15;10.78;;;7.15;;
70450;SDS011;58869;51.982;4.450;2023-12-20T02:01:43;11.21;;;7.44;;
70450;SDS011;58869;51.982;4.450;2023-12-20T02:04:18;11.95;;;7.96;;
70450;SDS011;58869;51.982;4.450;2023-12-20T02:06:53;11.45;;;7.59;;
70450;SDS011;58869;51.982;4.450;2023-12-20T02:09:22;12.28;;;7.94;;
70450;SDS011;58869;51.982;4.450;2023-12-20T02:12:02;11.44;;;7.41;;
70450;SDS011;58869;51.982;4.450;2023-12-20T02:17:40;11.35;;;7.20;;
70450;SDS011;58869;51.982;4.450;2023-12-20T02:20:09;11.49;;;7.40;;
70450;SDS011;58869;51.982;4.450;2023-12-20T02:22:38;11.75;;;7.54;;
70450;SDS011;58869;51.982;4.450;2023-12-20T02:28:24;10.91;;;7.13;;
70450;SDS011;58869;51.982;4.450;2023-12-20T02:30:50;11.61;;;7.63;;
70450;SDS011;58869;51.982;4.450;2023-12-20T02:33:15;11.92;;;7.68;;
70450;SDS011;58869;51.982;4.450;2023-12-20T02:35:44;11.96;;;7.66;;
70450;SDS011;58869;51.982;4.450;2023-12-20T02:41:47;12.73;;;8.12;;
70450;SDS011;58869;51.982;4.450;2023-12-20T02:44:25;13.85;;;8.72;;
70450;SDS011;58869;51.982;4.450;2023-12-20T02:46:50;13.03;;;8.34;;
70450;SDS011;58869;51.982;4.450;2023-12-20T02:52:20;11.54;;;7.42;;
70450;SDS011;58869;51.982;4.450;2023-12-20T02:54:45;12.54;;;8.05;;
70450;SDS011;58869;51.982;4.450;2023-12-20T02:57:16;12.34;;;7.86;;
70450;SDS011;58869;51.982;4.450;2023-12-20T02:59:50;12.10;;;7.74;;
70450;SDS011;58869;51.982;4.450;2023-12-20T03:02:21;11.42;;;7.32;;
70450;SDS011;58869;51.982;4.450;2023-12-20T03:04:49;11.49;;;7.37;;
70450;SDS011;58869;51.982;4.450;2023-12-20T03:07:17;11.66;;;7.50;;
70450;SDS011;58869;51.982;4.450;2023-12-20T03:09:51;11.06;;;7.23;;
70450;SDS011;58869;51.982;4.450;2023-12-20T03:12:16;10.33;;;6.83;;
70450;SDS011;58869;51.982;4.450;2023-12-20T03:14:54;11.24;;;7.36;;
70450;SDS011;58869;51.982;4.450;2023-12-20T03:17:25;10.96;;;7.15;;
70450;SDS011;58869;51.982;4.450;2023-12-20T03:19:51;12.07;;;7.68;;
70450;SDS011;58869;51.982;4.450;2023-12-20T03:22:16;12.10;;;7.81;;
70450;SDS011;58869;51.982;4.450;2023-12-20T03:24:54;11.17;;;7.36;;
70450;SDS011;58869;51.982;4.450;2023-12-20T03:30:50;11.58;;;7.40;;
70450;SDS011;58869;51.982;4.450;2023-12-20T03:33:23;12.01;;;7.73;;
70450;SDS011;58869;51.982;4.450;2023-12-20T03:35:58;12.34;;;7.95;;
70450;SDS011;58869;51.982;4.450;2023-12-20T03:53:25;11.86;;;7.70;;
70450;SDS011;58869;51.982;4.450;2023-12-20T03:55:59;12.34;;;7.98;;
70450;SDS011;58869;51.982;4.450;2023-12-20T04:01:24;11.17;;;7.36;;
70450;SDS011;58869;51.982;4.450;2023-12-20T04:03:54;11.41;;;7.53;;
70450;SDS011;58869;51.982;4.450;2023-12-20T04:06:19;11.20;;;7.27;;
70450;SDS011;58869;51.982;4.450;2023-12-20T04:08:51;13.26;;;8.64;;
70450;SDS011;58869;51.982;4.450;2023-12-20T04:11:45;13.19;;;8.53;;
70450;SDS011;58869;51.982;4.450;2023-12-20T04:14:16;11.24;;;7.48;;
70450;SDS011;58869;51.982;4.450;2023-12-20T04:16:56;12.16;;;8.05;;
70450;SDS011;58869;51.982;4.450;2023-12-20T04:19:22;12.09;;;7.92;;
70450;SDS011;58869;51.982;4.450;2023-12-20T04:21:50;11.89;;;7.72;;
70450;SDS011;58869;51.982;4.450;2023-12-20T04:24:31;12.14;;;7.90;;
70450;SDS011;58869;51.982;4.450;2023-12-20T04:27:26;11.98;;;7.88;;
70450;SDS011;58869;51.982;4.450;2023-12-20T04:29:57;14.51;;;9.25;;
70450;SDS011;58869;51.982;4.450;2023-12-20T04:35:14;12.62;;;8.13;;
70450;SDS011;58869;51.982;4.450;2023-12-20T04:37:57;11.39;;;7.22;;
70450;SDS011;58869;51.982;4.450;2023-12-20T04:40:29;12.64;;;8.04;;
70450;SDS011;58869;51.982;4.450;2023-12-20T04:42:54;11.29;;;7.18;;
70450;SDS011;58869;51.982;4.450;2023-12-20T04:45:23;10.92;;;7.00;;
70450;SDS011;58869;51.982;4.450;2023-12-20T04:51:18;11.59;;;7.45;;
70450;SDS011;58869;51.982;4.450;2023-12-20T04:53:59;13.19;;;8.38;;
70450;SDS011;58869;51.982;4.450;2023-12-20T05:05:27;11.87;;;7.62;;
70450;SDS011;58869;51.982;4.450;2023-12-20T05:07:58;11.85;;;7.49;;
70450;SDS011;58869;51.982;4.450;2023-12-20T05:10:24;12.97;;;8.24;;
70450;SDS011;58869;51.982;4.450;2023-12-20T05:22:55;12.01;;;7.78;;
70450;SDS011;58869;51.982;4.450;2023-12-20T05:25:22;12.31;;;8.04;;
70450;SDS011;58869;51.982;4.450;2023-12-20T05:28:03;12.27;;;7.99;;
70450;SDS011;58869;51.982;4.450;2023-12-20T05:36:58;13.53;;;8.72;;
70450;SDS011;58869;51.982;4.450;2023-12-20T05:43:30;12.97;;;8.33;;
70450;SDS011;58869;51.982;4.450;2023-12-20T05:45:55;12.70;;;8.33;;
70450;SDS011;58869;51.982;4.450;2023-12-20T05:48:23;13.68;;;8.79;;
70450;SDS011;58869;51.982;4.450;2023-12-20T05:51:00;13.29;;;8.58;;
70450;SDS011;58869;51.982;4.450;2023-12-20T05:53:26;12.38;;;8.11;;
70450;SDS011;58869;51.982;4.450;2023-12-20T05:55:51;13.11;;;8.39;;
70450;SDS011;58869;51.982;4.450;2023-12-20T05:58:17;13.46;;;8.70;;
70450;SDS011;58869;51.982;4.450;2023-12-20T06:00:42;11.32;;;7.32;;
70450;SDS011;58869;51.982;4.450;2023-12-20T06:03:08;11.70;;;7.59;;
70450;SDS011;58869;51.982;4.450;2023-12-20T06:05:33;11.54;;;7.56;;
70450;SDS011;58869;51.982;4.450;2023-12-20T06:07:59;13.57;;;8.68;;
70450;SDS011;58869;51.982;4.450;2023-12-20T06:10:28;12.70;;;8.20;;
70450;SDS011;58869;51.982;4.450;2023-12-20T06:12:53;13.60;;;8.68;;
70450;SDS011;58869;51.982;4.450;2023-12-20T06:15:19;12.53;;;7.98;;
70450;SDS011;58869;51.982;4.450;2023-12-20T06:17:45;12.58;;;8.08;;
70450;SDS011;58869;51.982;4.450;2023-12-20T06:20:12;13.12;;;8.44;;
70450;SDS011;58869;51.982;4.450;2023-12-20T06:22:38;13.33;;;8.60;;
70450;SDS011;58869;51.982;4.450;2023-12-20T06:25:04;12.62;;;8.21;;
70450;SDS011;58869;51.982;4.450;2023-12-20T06:27:32;11.20;;;7.48;;
70450;SDS011;58869;51.982;4.450;2023-12-20T06:29:57;11.33;;;7.57;;
70450;SDS011;58869;51.982;4.450;2023-12-20T06:32:23;12.30;;;8.08;;
70450;SDS011;58869;51.982;4.450;2023-12-20T06:34:49;11.98;;;7.94;;
70450;SDS011;58869;51.982;4.450;2023-12-20T06:37:15;11.52;;;7.62;;
70450;SDS011;58869;51.982;4.450;2023-12-20T06:39:40;12.54;;;8.15;;
70450;SDS011;58869;51.982;4.450;2023-12-20T06:42:06;12.16;;;7.79;;
70450;SDS011;58869;51.982;4.450;2023-12-20T06:44:34;14.55;;;9.18;;
70450;SDS011;58869;51.982;4.450;2023-12-20T06:47:00;14.11;;;8.79;;
70450;SDS011;58869;51.982;4.450;2023-12-20T06:49:25;12.97;;;8.30;;
70450;SDS011;58869;51.982;4.450;2023-12-20T06:51:50;12.63;;;8.17;;
70450;SDS011;58869;51.982;4.450;2023-12-20T06:54:16;11.57;;;7.52;;
70450;SDS011;58869;51.982;4.450;2023-12-20T06:56:41;12.21;;;7.94;;
70450;SDS011;58869;51.982;4.450;2023-12-20T06:59:07;13.69;;;8.81;;
70450;SDS011;58869;51.982;4.450;2023-12-20T07:01:32;14.29;;;9.10;;
70450;SDS011;58869;51.982;4.450;2023-12-20T07:03:58;13.26;;;8.43;;
70450;SDS011;58869;51.982;4.450;2023-12-20T07:06:23;12.78;;;8.27;;
70450;SDS011;58869;51.982;4.450;2023-12-20T07:08:50;13.89;;;8.88;;
70450;SDS011;58869;51.982;4.450;2023-12-20T07:11:17;11.94;;;7.72;;
70450;SDS011;58869;51.982;4.450;2023-12-20T07:13:42;13.92;;;9.00;;
70450;SDS011;58869;51.982;4.450;2023-12-20T07:16:08;12.80;;;8.25;;
70450;SDS011;58869;51.982;4.450;2023-12-20T07:18:33;14.40;;;9.14;;
70450;SDS011;58869;51.982;4.450;2023-12-20T07:20:59;13.73;;;8.78;;
70450;SDS011;58869;51.982;4.450;2023-12-20T07:23:24;12.60;;;8.09;;
70450;SDS011;58869;51.982;4.450;2023-12-20T07:25:50;12.69;;;8.19;;
70450;SDS011;58869;51.982;4.450;2023-12-20T07:28:16;13.90;;;8.95;;
70450;SDS011;58869;51.982;4.450;2023-12-20T07:30:41;12.80;;;8.23;;
70450;SDS011;58869;51.982;4.450;2023-12-20T07:33:07;13.85;;;8.83;;
70450;SDS011;58869;51.982;4.450;2023-12-20T07:35:34;13.97;;;8.84;;
70450;SDS011;58869;51.982;4.450;2023-12-20T07:37:59;14.17;;;8.96;;
70450;SDS011;58869;51.982;4.450;2023-12-20T07:40:25;13.43;;;8.53;;
70450;SDS011;58869;51.982;4.450;2023-12-20T07:42:50;13.55;;;8.71;;
70450;SDS011;58869;51.982;4.450;2023-12-20T07:45:16;11.91;;;7.81;;
70450;SDS011;58869;51.982;4.450;2023-12-20T07:47:43;12.95;;;8.28;;
70450;SDS011;58869;51.982;4.450;2023-12-20T07:50:08;12.40;;;7.90;;
70450;SDS011;58869;51.982;4.450;2023-12-20T07:52:35;12.63;;;8.13;;
70450;SDS011;58869;51.982;4.450;2023-12-20T07:55:00;11.83;;;7.60;;
70450;SDS011;58869;51.982;4.450;2023-12-20T07:57:29;12.03;;;7.88;;
70450;SDS011;58869;51.982;4.450;2023-12-20T07:59:55;13.44;;;8.58;;
70450;SDS011;58869;51.982;4.450;2023-12-20T08:02:21;13.12;;;8.41;;
70450;SDS011;58869;51.982;4.450;2023-12-20T08:04:46;13.42;;;8.55;;
70450;SDS011;58869;51.982;4.450;2023-12-20T08:07:12;12.42;;;7.99;;
70450;SDS011;58869;51.982;4.450;2023-12-20T08:09:38;11.47;;;7.54;;
70450;SDS011;58869;51.982;4.450;2023-12-20T08:12:03;13.18;;;8.47;;
70450;SDS011;58869;51.982;4.450;2023-12-20T08:14:29;13.29;;;8.39;;
70450;SDS011;58869;51.982;4.450;2023-12-20T08:24:40;12.54;;;7.93;;
70450;SDS011;58869;51.982;4.450;2023-12-20T08:30:07;13.03;;;8.23;;
70450;SDS011;58869;51.982;4.450;2023-12-20T08:32:54;12.33;;;7.81;;
70450;SDS011;58869;51.982;4.450;2023-12-20T08:35:22;13.40;;;8.42;;
70450;SDS011;58869;51.982;4.450;2023-12-20T08:37:59;13.36;;;8.41;;
70450;SDS011;58869;51.982;4.450;2023-12-20T08:40:34;13.47;;;8.57;;
70450;SDS011;58869;51.982;4.450;2023-12-20T08:43:19;12.01;;;7.94;;
70450;SDS011;58869;51.982;4.450;2023-12-20T08:46:01;12.13;;;7.92;;
70450;SDS011;58869;51.982;4.450;2023-12-20T09:04:27;12.18;;;7.74;;
70450;SDS011;58869;51.982;4.450;2023-12-20T09:07:01;12.06;;;7.62;;
70450;SDS011;58869;51.982;4.450;2023-12-20T09:22:10;12.59;;;7.89;;
70450;SDS011;58869;51.982;4.450;2023-12-20T09:31:05;13.44;;;8.45;;
70450;SDS011;58869;51.982;4.450;2023-12-20T09:38:05;12.82;;;8.11;;
70450;SDS011;58869;51.982;4.450;2023-12-20T09:43:53;12.91;;;8.13;;
70450;SDS011;58869;51.982;4.450;2023-12-20T09:46:43;13.47;;;8.43;;
70450;SDS011;58869;51.982;4.450;2023-12-20T09:49:10;13.54;;;8.44;;
70450;SDS011;58869;51.982;4.450;2023-12-20T09:51:39;12.77;;;8.06;;
70450;SDS011;58869;51.982;4.450;2023-12-20T09:54:24;13.50;;;8.52;;
70450;SDS011;58869;51.982;4.450;2023-12-20T09:56:52;13.71;;;8.61;;
70450;SDS011;58869;51.982;4.450;2023-12-20T09:59:18;13.63;;;8.47;;
70450;SDS011;58869;51.982;4.450;2023-12-20T10:08:10;12.80;;;8.04;;
70450;SDS011;58869;51.982;4.450;2023-12-20T10:17:09;11.58;;;7.38;;
70450;SDS011;58869;51.982;4.450;2023-12-20T10:19:35;10.74;;;6.87;;
70450;SDS011;58869;51.982;4.450;2023-12-20T10:22:03;11.75;;;7.50;;
70450;SDS011;58869;51.982;4.450;2023-12-20T10:24:38;12.54;;;7.86;;
70450;SDS011;58869;51.982;4.450;2023-12-20T10:27:08;12.66;;;7.77;;
70450;SDS011;58869;51.982;4.450;2023-12-20T10:29:34;12.67;;;7.74;;
70450;SDS011;58869;51.982;4.450;2023-12-20T10:34:54;11.85;;;7.46;;
70450;SDS011;58869;51.982;4.450;2023-12-20T10:40:23;12.04;;;7.56;;
70450;SDS011;58869;51.982;4.450;2023-12-20T10:45:42;11.63;;;7.45;;
70450;SDS011;58869;51.982;4.450;2023-12-20T10:48:11;11.86;;;7.61;;
70450;SDS011;58869;51.982;4.450;2023-12-20T10:51:19;12.03;;;7.64;;
70450;SDS011;58869;51.982;4.450;2023-12-20T10:59:43;11.28;;;7.21;;
70450;SDS011;58869;51.982;4.450;2023-12-20T11:02:14;11.92;;;7.62;;
70450;SDS011;58869;51.982;4.450;2023-12-20T11:07:25;11.54;;;7.41;;
70450;SDS011;58869;51.982;4.450;2023-12-20T11:10:03;11.51;;;7.41;;
70450;SDS011;58869;51.982;4.450;2023-12-20T11:12:51;11.56;;;7.33;;
70450;SDS011;58869;51.982;4.450;2023-12-20T11:15:54;12.17;;;7.77;;
70450;SDS011;58869;51.982;4.450;2023-12-20T11:18:29;11.16;;;7.05;;
70450;SDS011;58869;51.982;4.450;2023-12-20T11:20:55;13.54;;;8.47;;
70450;SDS011;58869;51.982;4.450;2023-12-20T11:30:46;12.04;;;7.53;;
70450;SDS011;58869;51.982;4.450;2023-12-20T11:33:38;10.79;;;6.75;;
70450;SDS011;58869;51.982;4.450;2023-12-20T11:36:12;10.85;;;6.86;;
70450;SDS011;58869;51.982;4.450;2023-12-20T11:41:54;11.09;;;7.03;;
70450;SDS011;58869;51.982;4.450;2023-12-20T11:47:49;10.73;;;6.80;;
70450;SDS011;58869;51.982;4.450;2023-12-20T11:50:49;13.18;;;8.05;;
70450;SDS011;58869;51.982;4.450;2023-12-20T11:53:17;11.92;;;7.33;;
70450;SDS011;58869;51.982;4.450;2023-12-20T11:55:47;11.27;;;7.02;;
70450;SDS011;58869;51.982;4.450;2023-12-20T11:58:14;11.85;;;7.44;;
70450;SDS011;58869;51.982;4.450;2023-12-20T12:01:05;11.97;;;7.43;;
70450;SDS011;58869;51.982;4.450;2023-12-20T12:03:37;12.27;;;7.62;;
70450;SDS011;58869;51.982;4.450;2023-12-20T12:06:24;13.50;;;8.46;;
70450;SDS011;58869;51.982;4.450;2023-12-20T12:09:08;12.11;;;7.59;;
70450;SDS011;58869;51.982;4.450;2023-12-20T12:11:49;11.61;;;7.28;;
70450;SDS011;58869;51.982;4.450;2023-12-20T12:20:44;10.45;;;6.59;;
70450;SDS011;58869;51.982;4.450;2023-12-20T12:23:27;11.54;;;7.14;;
70450;SDS011;58869;51.982;4.450;2023-12-20T12:33:37;11.83;;;7.31;;
70450;SDS011;58869;51.982;4.450;2023-12-20T12:36:03;12.08;;;7.56;;
70450;SDS011;58869;51.982;4.450;2023-12-20T12:38:32;12.52;;;7.84;;
70450;SDS011;58869;51.982;4.450;2023-12-20T12:41:03;12.21;;;7.67;;
70450;SDS011;58869;51.982;4.450;2023-12-20T12:43:32;11.28;;;7.19;;
70450;SDS011;58869;51.982;4.450;2023-12-20T12:45:58;11.05;;;7.11;;
70450;SDS011;58869;51.982;4.450;2023-12-20T12:48:23;10.11;;;6.58;;
70450;SDS011;58869;51.982;4.450;2023-12-20T12:50:49;11.34;;;7.28;;
70450;SDS011;58869;51.982;4.450;2023-12-20T12:56:16;10.79;;;6.80;;
70450;SDS011;58869;51.982;4.450;2023-12-20T13:02:27;11.36;;;7.15;;
70450;SDS011;58869;51.982;4.450;2023-12-20T13:04:52;11.62;;;7.23;;
70450;SDS011;58869;51.982;4.450;2023-12-20T13:07:18;11.65;;;7.29;;
70450;SDS011;58869;51.982;4.450;2023-12-20T13:09:43;11.74;;;7.30;;
70450;SDS011;58869;51.982;4.450;2023-12-20T13:12:09;13.13;;;8.11;;
70450;SDS011;58869;51.982;4.450;2023-12-20T13:14:38;12.64;;;7.83;;
70450;SDS011;58869;51.982;4.450;2023-12-20T13:17:19;13.35;;;8.23;;
70450;SDS011;58869;51.982;4.450;2023-12-20T13:19:44;12.35;;;7.61;;
70450;SDS011;58869;51.982;4.450;2023-12-20T13:25:45;12.03;;;7.43;;
70450;SDS011;58869;51.982;4.450;2023-12-20T13:28:22;11.95;;;7.40;;
70450;SDS011;58869;51.982;4.450;2023-12-20T13:54:29;10.55;;;6.74;;
70450;SDS011;58869;51.982;4.450;2023-12-20T13:57:04;11.61;;;7.37;;
70450;SDS011;58869;51.982;4.450;2023-12-20T13:59:47;10.89;;;7.11;;
70450;SDS011;58869;51.982;4.450;2023-12-20T14:02:35;9.86;;;6.58;;
70450;SDS011;58869;51.982;4.450;2023-12-20T14:05:00;9.52;;;6.43;;
70450;SDS011;58869;51.982;4.450;2023-12-20T14:07:28;10.18;;;6.78;;
70450;SDS011;58869;51.982;4.450;2023-12-20T14:09:54;11.28;;;7.39;;
70450;SDS011;58869;51.982;4.450;2023-12-20T14:12:20;9.99;;;6.52;;
70450;SDS011;58869;51.982;4.450;2023-12-20T14:14:48;12.08;;;7.72;;
70450;SDS011;58869;51.982;4.450;2023-12-20T14:17:14;11.58;;;7.41;;
70450;SDS011;58869;51.982;4.450;2023-12-20T14:19:42;12.05;;;7.70;;
70450;SDS011;58869;51.982;4.450;2023-12-20T14:22:09;12.41;;;7.87;;
70450;SDS011;58869;51.982;4.450;2023-12-20T14:24:38;12.06;;;7.62;;
70450;SDS011;58869;51.982;4.450;2023-12-20T14:27:04;11.57;;;7.43;;
70450;SDS011;58869;51.982;4.450;2023-12-20T14:29:29;10.92;;;7.02;;
70450;SDS011;58869;51.982;4.450;2023-12-20T14:31:55;10.98;;;7.10;;
70450;SDS011;58869;51.982;4.450;2023-12-20T14:34:20;11.21;;;7.21;;
70450;SDS011;58869;51.982;4.450;2023-12-20T14:36:46;11.27;;;7.14;;
70450;SDS011;58869;51.982;4.450;2023-12-20T14:39:12;11.77;;;7.36;;
70450;SDS011;58869;51.982;4.450;2023-12-20T14:41:38;10.35;;;6.62;;
70450;SDS011;58869;51.982;4.450;2023-12-20T14:44:05;10.10;;;6.48;;
70450;SDS011;58869;51.982;4.450;2023-12-20T14:46:31;10.16;;;6.47;;
70450;SDS011;58869;51.982;4.450;2023-12-20T14:48:57;10.37;;;6.64;;
70450;SDS011;58869;51.982;4.450;2023-12-20T14:51:22;8.95;;;5.86;;
70450;SDS011;58869;51.982;4.450;2023-12-20T14:53:48;9.42;;;6.16;;
70450;SDS011;58869;51.982;4.450;2023-12-20T14:56:16;9.81;;;6.45;;
70450;SDS011;58869;51.982;4.450;2023-12-20T14:58:53;9.93;;;6.48;;
70450;SDS011;58869;51.982;4.450;2023-12-20T15:01:18;10.30;;;6.65;;
70450;SDS011;58869;51.982;4.450;2023-12-20T15:04:06;9.58;;;6.20;;
70450;SDS011;58869;51.982;4.450;2023-12-20T15:09:57;11.28;;;7.17;;
70450;SDS011;58869;51.982;4.450;2023-12-20T15:12:38;10.68;;;6.85;;
70450;SDS011;58869;51.982;4.450;2023-12-20T15:15:21;10.27;;;6.54;;
70450;SDS011;58869;51.982;4.450;2023-12-20T15:20:22;11.13;;;7.01;;
70450;SDS011;58869;51.982;4.450;2023-12-20T15:22:50;9.78;;;6.27;;
70450;SDS011;58869;51.982;4.450;2023-12-20T15:25:21;9.70;;;6.39;;
70450;SDS011;58869;51.982;4.450;2023-12-20T15:27:59;9.81;;;6.45;;
70450;SDS011;58869;51.982;4.450;2023-12-20T15:30:27;10.65;;;6.96;;
70450;SDS011;58869;51.982;4.450;2023-12-20T15:32:59;10.55;;;6.90;;
70450;SDS011;58869;51.982;4.450;2023-12-20T15:35:26;10.75;;;6.95;;
70450;SDS011;58869;51.982;4.450;2023-12-20T15:37:53;10.84;;;6.88;;
70450;SDS011;58869;51.982;4.450;2023-12-20T15:43:30;9.58;;;6.21;;
70450;SDS011;58869;51.982;4.450;2023-12-20T15:46:14;9.08;;;5.95;;
70450;SDS011;58869;51.982;4.450;2023-12-20T15:48:52;9.37;;;6.17;;
70450;SDS011;58869;51.982;4.450;2023-12-20T15:51:38;9.78;;;6.34;;
70450;SDS011;58869;51.982;4.450;2023-12-20T15:54:05;8.83;;;5.72;;
70450;SDS011;58869;51.982;4.450;2023-12-20T15:56:53;8.20;;;5.37;;
70450;SDS011;58869;51.982;4.450;2023-12-20T15:59:18;8.61;;;5.58;;
70450;SDS011;58869;51.982;4.450;2023-12-20T16:01:45;10.00;;;6.42;;
70450;SDS011;58869;51.982;4.450;2023-12-20T16:04:10;9.31;;;5.96;;
70450;SDS011;58869;51.982;4.450;2023-12-20T16:06:36;10.69;;;6.80;;
70450;SDS011;58869;51.982;4.450;2023-12-20T16:09:02;9.91;;;6.28;;
70450;SDS011;58869;51.982;4.450;2023-12-20T16:11:33;9.34;;;6.08;;
70450;SDS011;58869;51.982;4.450;2023-12-20T16:13:59;9.71;;;6.19;;
70450;SDS011;58869;51.982;4.450;2023-12-20T16:16:25;9.24;;;5.98;;
70450;SDS011;58869;51.982;4.450;2023-12-20T16:18:50;9.63;;;6.20;;
70450;SDS011;58869;51.982;4.450;2023-12-20T16:21:19;9.10;;;5.95;;
70450;SDS011;58869;51.982;4.450;2023-12-20T16:23:45;9.15;;;5.88;;
70450;SDS011;58869;51.982;4.450;2023-12-20T16:26:11;9.98;;;6.33;;
70450;SDS011;58869;51.982;4.450;2023-12-20T16:28:37;9.67;;;6.18;;
70450;SDS011;58869;51.982;4.450;2023-12-20T16:31:03;10.67;;;6.76;;
70450;SDS011;58869;51.982;4.450;2023-12-20T16:33:28;10.39;;;6.66;;
70450;SDS011;58869;51.982;4.450;2023-12-20T16:35:55;9.97;;;6.44;;
70450;SDS011;58869;51.982;4.450;2023-12-20T16:38:20;9.73;;;6.50;;
70450;SDS011;58869;51.982;4.450;2023-12-20T16:40:46;8.79;;;5.92;;
70450;SDS011;58869;51.982;4.450;2023-12-20T16:43:12;8.55;;;5.60;;
70450;SDS011;58869;51.982;4.450;2023-12-20T16:45:37;9.31;;;6.09;;
70450;SDS011;58869;51.982;4.450;2023-12-20T16:48:03;9.11;;;5.99;;
70450;SDS011;58869;51.982;4.450;2023-12-20T16:50:29;9.72;;;6.30;;
70450;SDS011;58869;51.982;4.450;2023-12-20T16:52:54;9.24;;;6.03;;
70450;SDS011;58869;51.982;4.450;2023-12-20T16:55:22;9.43;;;6.30;;
70450;SDS011;58869;51.982;4.450;2023-12-20T16:57:48;9.07;;;6.11;;
70450;SDS011;58869;51.982;4.450;2023-12-20T17:00:14;9.11;;;6.16;;
70450;SDS011;58869;51.982;4.450;2023-12-20T17:28:45;8.76;;;5.75;;
70450;SDS011;58869;51.982;4.450;2023-12-20T17:31:14;9.53;;;6.18;;
70450;SDS011;58869;51.982;4.450;2023-12-20T17:49:33;8.94;;;5.97;;
70450;SDS011;58869;51.982;4.450;2023-12-20T18:05:23;10.67;;;6.80;;
70450;SDS011;58869;51.982;4.450;2023-12-20T18:31:05;7.83;;;5.14;;
70450;SDS011;58869;51.982;4.450;2023-12-20T19:21:54;8.11;;;5.38;;
70450;SDS011;58869;51.982;4.450;2023-12-20T22:02:12;8.12;;;5.29;;
70450;SDS011;58869;51.982;4.450;2023-12-20T22:04:46;8.44;;;5.55;;
70450;SDS011;58869;51.982;4.450;2023-12-20T22:07:23;7.54;;;5.11;;
70450;SDS011;58869;51.982;4.450;2023-12-20T22:09:49;6.48;;;4.49;;
70450;SDS011;58869;51.982;4.450;2023-12-20T22:12:33;6.45;;;4.54;;
70450;SDS011;58869;51.982;4.450;2023-12-20T22:15:07;6.81;;;4.80;;
70450;SDS011;58869;51.982;4.450;2023-12-20T22:17:46;6.51;;;4.60;;
70450;SDS011;58869;51.982;4.450;2023-12-20T22:20:11;6.16;;;4.38;;
70450;SDS011;58869;51.982;4.450;2023-12-20T22:31:19;8.01;;;5.33;;
70450;SDS011;58869;51.982;4.450;2023-12-20T22:56:55;6.91;;;4.59;;
70450;SDS011;58869;51.982;4.450;2023-12-20T23:06:01;8.03;;;5.28;;
70450;SDS011;58869;51.982;4.450;2023-12-20T23:13:59;7.60;;;5.01;;
70450;SDS011;58869;51.982;4.450;2023-12-20T23:16:24;7.15;;;4.85;;
70450;SDS011;58869;51.982;4.450;2023-12-20T23:18:50;8.07;;;5.37;;
70450;SDS011;58869;51.982;4.450;2023-12-20T23:21:15;7.83;;;5.21;;
70450;SDS011;58869;51.982;4.450;2023-12-20T23:23:41;8.53;;;5.65;;
70450;SDS011;58869;51.982;4.450;2023-12-20T23:35:53;8.32;;;5.52;;
70450;SDS011;58869;51.982;4.450;2023-12-20T23:38:22;7.91;;;5.33;;
70450;SDS011;58869;51.982;4.450;2023-12-20T23:44:15;7.74;;;5.20;;
70450;SDS011;58869;51.982;4.450;2023-12-20T23:46:56;7.93;;;5.34;;
70450;SDS011;58869;51.982;4.450;2023-12-20T23:49:22;8.13;;;5.46;;
70450;SDS011;58869;51.982;4.450;2023-12-20T23:51:54;7.91;;;5.36;;
70450;SDS011;58869;51.982;4.450;2023-12-20T23:54:34;8.52;;;5.63;;
